Time;durP1;ratioP1;P1;durP2;ratioP2;P2;SDS_P1;SDS_P2;PMS_P1;PMS_P2;Temp;Humidity;BMP_temperature;BMP_pressure;BME280_temperature;BME280_humidity;BME280_pressure;Samples;Min_cycle;Max_cycle;Signal;HPM_P1;HPM_P2
2023/04/26 00:00:07;;;;;;;13.30;5.40;;;;;;;7.64;77.08;99451.23;130890;1257;107502;-77
2023/04/26 00:03:33;;;;;;;10.40;5.30;;;;;;;7.66;77.08;99457.46;130897;1256;107773;-75
2023/04/26 00:06:38;;;;;;;10.60;5.80;;;;;;;7.66;77.23;99459.39;130790;1253;107510;-76
2023/04/26 00:09:44;;;;;;;11.50;5.90;;;;;;;7.64;76.80;99465.13;130753;1253;107231;-76
2023/04/26 00:12:49;;;;;;;11.20;5.60;;;;;;;7.59;77.07;99464.23;130789;1254;107277;-76
2023/04/26 00:15:55;;;;;;;9.90;5.30;;;;;;;7.52;77.18;99469.72;130772;1254;107252;-76
2023/04/26 00:19:01;;;;;;;12.60;5.10;;;;;;;7.41;77.14;99466.14;130723;1256;107548;-77
2023/04/26 00:22:07;;;;;;;16.00;5.20;;;;;;;7.33;77.25;99468.39;130855;1253;107539;-77
2023/04/26 00:25:13;;;;;;;13.80;5.50;;;;;;;7.29;77.41;99471.08;130876;1256;107419;-74
2023/04/26 00:28:19;;;;;;;15.30;6.80;;;;;;;7.26;77.89;99481.23;130910;1256;107483;-76
2023/04/26 00:31:25;;;;;;;13.90;6.10;;;;;;;7.24;77.63;99481.20;130769;1254;107295;-77
2023/04/26 00:34:35;;;;;;;19.60;8.40;;;;;;;7.23;77.79;99480.16;130691;1259;107551;-77
2023/04/26 00:37:41;;;;;;;13.30;6.30;;;;;;;7.26;77.42;99486.23;130878;1255;107351;-78
2023/04/26 00:40:46;;;;;;;13.50;6.10;;;;;;;7.26;76.77;99489.91;130835;1257;107382;-77
2023/04/26 00:43:52;;;;;;;11.60;5.60;;;;;;;7.24;76.59;99483.95;130935;1253;106360;-76
2023/04/26 00:46:57;;;;;;;13.40;5.90;;;;;;;7.14;76.32;99487.05;130894;1267;107531;-78
2023/04/26 00:50:03;;;;;;;12.30;4.90;;;;;;;7.00;75.98;99492.73;130838;1257;107483;-78
2023/04/26 00:53:10;;;;;;;12.70;5.10;;;;;;;6.86;75.39;99496.80;130957;1259;107224;-78
2023/04/26 00:56:18;;;;;;;11.00;4.80;;;;;;;6.75;75.34;99500.83;130872;1254;108073;-78
2023/04/26 00:59:26;;;;;;;10.20;5.00;;;;;;;6.65;75.02;99501.23;130901;1256;107428;-77
2023/04/26 01:02:32;;;;;;;13.10;5.70;;;;;;;6.57;74.60;99504.11;130943;1253;107224;-77
2023/04/26 01:05:37;;;;;;;10.80;4.70;;;;;;;6.48;74.50;99503.41;130877;1257;107522;-78
2023/04/26 01:08:43;;;;;;;10.80;4.90;;;;;;;6.38;74.27;99499.64;131154;1259;106564;-75
2023/04/26 01:11:49;;;;;;;11.40;5.10;;;;;;;6.31;74.50;99503.23;130876;1259;107562;-78
2023/04/26 01:14:56;;;;;;;12.80;6.00;;;;;;;6.26;74.32;99501.44;131038;1254;107515;-77
2023/04/26 01:18:02;;;;;;;11.90;5.00;;;;;;;6.18;74.13;99501.63;131037;1256;107544;-77
2023/04/26 01:21:10;;;;;;;12.00;5.20;;;;;;;6.11;74.44;99503.02;130821;1253;107266;-77
2023/04/26 01:24:16;;;;;;;11.90;5.10;;;;;;;6.01;74.33;99506.89;130796;1256;107374;-77
2023/04/26 01:27:21;;;;;;;9.50;4.90;;;;;;;5.94;73.98;99506.86;130634;1253;107549;-77
2023/04/26 01:30:27;;;;;;;15.10;5.10;;;;;;;5.85;74.10;99511.66;130773;1253;106478;-77
2023/04/26 01:33:32;;;;;;;12.10;4.40;;;;;;;5.79;74.00;99516.35;130934;1256;107370;-77
2023/04/26 01:36:38;;;;;;;10.40;5.10;;;;;;;5.78;74.36;99518.88;130902;1256;107374;-77
2023/04/26 01:39:43;;;;;;;11.90;5.80;;;;;;;5.82;74.42;99517.10;130902;1257;105443;-77
2023/04/26 01:42:50;;;;;;;13.50;5.40;;;;;;;5.84;73.99;99519.77;130886;1256;107350;-77
2023/04/26 01:45:57;;;;;;;11.20;5.20;;;;;;;5.83;74.08;99519.99;130888;1259;107309;-77
2023/04/26 01:49:07;;;;;;;;;;;;;;;5.83;73.94;99525.51;130956;1254;107448;-77
2023/04/26 01:52:12;;;;;;;8.90;4.80;;;;;;;5.78;73.76;99526.32;130944;1253;107541;-77
2023/04/26 01:55:18;;;;;;;11.70;4.80;;;;;;;5.77;74.00;99535.20;131024;1254;106555;-77
2023/04/26 01:58:24;;;;;;;12.40;5.60;;;;;;;5.74;73.71;99535.66;130729;1259;107530;-78
2023/04/26 02:01:30;;;;;;;16.70;6.40;;;;;;;5.71;73.59;99535.23;130686;1262;107525;-77
2023/04/26 02:04:35;;;;;;;16.70;6.80;;;;;;;5.63;73.83;99539.64;130781;1259;107271;-77
2023/04/26 02:07:41;;;;;;;13.00;5.40;;;;;;;5.57;73.82;99535.80;130861;1254;107529;-78
2023/04/26 02:10:46;;;;;;;9.70;5.40;;;;;;;5.48;73.66;99537.95;130833;1258;107506;-75
2023/04/26 02:13:52;;;;;;;9.90;4.70;;;;;;;5.40;73.69;99538.39;130934;1257;107371;-75
2023/04/26 02:17:00;;;;;;;13.40;6.70;;;;;;;5.35;73.62;99539.20;130838;1253;107321;-77
2023/04/26 02:20:09;;;;;;;11.10;5.60;;;;;;;5.25;73.63;99543.98;130876;1255;107292;-78
2023/04/26 02:23:15;;;;;;;13.90;5.30;;;;;;;5.14;73.63;99539.30;130787;1266;107252;-77
2023/04/26 02:26:22;;;;;;;11.60;4.90;;;;;;;5.07;73.56;99541.23;130848;1254;107379;-77
2023/04/26 02:29:27;;;;;;;16.10;6.60;;;;;;;5.07;73.84;99540.54;130665;1259;106045;-77
2023/04/26 02:32:33;;;;;;;12.60;5.40;;;;;;;5.13;73.60;99538.84;130835;1259;107498;-77
2023/04/26 02:35:39;;;;;;;10.70;5.30;;;;;;;5.16;73.45;99536.61;130730;1259;107534;-77
2023/04/26 02:38:44;;;;;;;10.30;5.30;;;;;;;5.16;73.36;99535.20;131042;1253;107546;-77
2023/04/26 02:41:50;;;;;;;13.70;6.70;;;;;;;5.14;73.18;99533.26;131229;1253;106447;-77
2023/04/26 02:44:56;;;;;;;11.30;5.70;;;;;;;5.07;73.35;99533.88;130767;1256;107552;-74
2023/04/26 02:48:02;;;;;;;11.20;5.60;;;;;;;5.03;73.38;99530.04;130908;1253;107274;-77
2023/04/26 02:51:08;;;;;;;12.00;5.70;;;;;;;5.03;73.39;99531.59;130839;1256;107542;-76
2023/04/26 02:54:15;;;;;;;12.30;6.00;;;;;;;5.00;73.37;99531.31;130813;1259;107570;-76
2023/04/26 02:57:21;;;;;;;9.00;5.10;;;;;;;4.97;73.29;99534.24;130844;1259;107343;-75
2023/04/26 03:00:27;;;;;;;10.40;5.50;;;;;;;4.93;73.41;99541.99;130868;1257;105457;-75
2023/04/26 03:03:33;;;;;;;12.10;5.80;;;;;;;4.92;73.32;99535.40;130661;1254;107567;-74
2023/04/26 03:06:40;;;;;;;12.70;5.90;;;;;;;4.89;73.39;99536.84;130672;1259;107501;-77
2023/04/26 03:09:45;;;;;;;12.30;5.70;;;;;;;4.85;73.29;99542.11;130818;1257;107521;-74
2023/04/26 03:12:51;;;;;;;10.70;4.60;;;;;;;4.82;73.34;99545.97;130847;1253;107501;-75
2023/04/26 03:15:56;;;;;;;10.70;5.20;;;;;;;4.77;73.37;99546.40;130791;1256;107210;-74
2023/04/26 03:19:02;;;;;;;12.40;5.10;;;;;;;4.74;73.47;99551.89;130806;1256;107397;-76
2023/04/26 03:22:10;;;;;;;13.90;5.10;;;;;;;4.69;73.48;99558.80;130895;1257;107372;-74
2023/04/26 03:25:15;;;;;;;12.60;5.80;;;;;;;4.73;73.55;99555.84;130817;1254;107554;-76
2023/04/26 03:28:21;;;;;;;13.70;6.30;;;;;;;4.77;73.45;99558.56;130808;1258;107373;-75
2023/04/26 03:31:27;;;;;;;11.50;5.00;;;;;;;4.75;73.43;99560.11;130784;1254;107626;-76
2023/04/26 03:34:33;;;;;;;10.80;5.30;;;;;;;4.69;73.58;99565.70;130797;1256;107751;-76
2023/04/26 03:37:39;;;;;;;14.40;5.70;;;;;;;4.68;73.58;99571.76;130774;1253;106698;-76
2023/04/26 03:40:45;;;;;;;10.00;5.10;;;;;;;4.65;73.58;99573.66;130812;1256;107483;-75
2023/04/26 03:43:51;;;;;;;13.10;5.90;;;;;;;4.63;73.63;99579.50;130782;1257;107325;-74
2023/04/26 03:46:57;;;;;;;14.00;6.40;;;;;;;4.60;73.69;99577.77;130732;1253;107625;-76
2023/04/26 03:50:02;;;;;;;9.30;5.30;;;;;;;4.63;73.68;99575.06;130837;1253;107624;-74
2023/04/26 03:53:08;;;;;;;10.80;5.20;;;;;;;4.64;73.60;99575.54;130783;1259;107444;-75
2023/04/26 03:56:15;;;;;;;13.70;5.30;;;;;;;4.62;73.74;99575.48;130762;1257;107445;-75
2023/04/26 03:59:22;;;;;;;12.70;5.30;;;;;;;4.62;73.89;99576.77;130870;1254;107730;-76
2023/04/26 04:02:27;;;;;;;11.30;5.70;;;;;;;4.65;73.83;99575.74;130674;1265;107509;-76
2023/04/26 04:05:34;;;;;;;12.30;5.60;;;;;;;4.73;73.78;99580.92;130800;1264;107293;-74
2023/04/26 04:08:40;;;;;;;10.70;5.40;;;;;;;4.80;73.74;99588.39;130665;1254;107532;-75
2023/04/26 04:11:46;;;;;;;11.00;5.20;;;;;;;4.83;73.63;99586.73;130608;1268;107532;-76
2023/04/26 04:14:52;;;;;;;13.00;5.70;;;;;;;4.87;73.79;99587.98;130740;1257;106716;-76
2023/04/26 04:17:58;;;;;;;11.40;5.40;;;;;;;4.95;73.60;99591.70;130708;1253;107620;-76
2023/04/26 04:21:03;;;;;;;12.50;5.70;;;;;;;4.94;73.65;99591.80;130653;1256;107504;-76
2023/04/26 04:24:10;;;;;;;10.80;5.40;;;;;;;5.00;73.69;99595.46;130897;1257;107456;-76
2023/04/26 04:27:16;;;;;;;11.40;5.40;;;;;;;5.09;73.70;99596.77;130623;1254;107446;-76
2023/04/26 04:30:25;;;;;;;12.20;5.40;;;;;;;5.22;73.67;99599.00;130748;1254;107395;-75
2023/04/26 04:33:30;;;;;;;8.80;4.90;;;;;;;5.40;73.63;99596.20;130692;1256;106523;-76
2023/04/26 04:36:39;;;;;;;12.90;6.00;;;;;;;5.59;73.31;99591.54;130692;1256;107471;-76
2023/04/26 04:39:45;;;;;;;12.10;5.20;;;;;;;5.70;73.38;99592.69;130734;1259;107395;-75
2023/04/26 04:42:52;;;;;;;11.10;5.70;;;;;;;5.91;73.35;99593.99;130776;1266;107415;-74
2023/04/26 04:46:00;;;;;;;11.80;6.80;;;;;;;6.10;72.64;99596.33;130801;1256;106422;-75
2023/04/26 04:49:08;;;;;;;12.90;5.90;;;;;;;6.23;72.84;99601.10;130832;1266;107391;-76
2023/04/26 04:52:14;;;;;;;10.10;5.10;;;;;;;6.42;72.89;99602.03;130782;1270;108201;-76
2023/04/26 04:55:20;;;;;;;10.40;5.00;;;;;;;6.67;72.71;99603.08;130791;1259;107375;-75
2023/04/26 04:58:26;;;;;;;11.80;5.30;;;;;;;6.80;71.68;99609.41;130749;1255;106545;-75
2023/04/26 05:01:32;;;;;;;10.30;4.90;;;;;;;6.78;71.48;99610.16;130761;1260;107496;-76
2023/04/26 05:04:40;;;;;;;9.10;4.80;;;;;;;6.77;71.56;99612.54;130587;1259;107551;-73
2023/04/26 05:07:45;;;;;;;8.70;4.90;;;;;;;6.88;72.06;99612.95;130642;1259;107560;-73
2023/04/26 05:10:52;;;;;;;11.60;5.10;;;;;;;6.98;71.79;99609.12;130682;1254;107386;-75
2023/04/26 05:13:57;;;;;;;8.40;4.90;;;;;;;6.98;71.40;99614.77;130788;1268;107357;-74
2023/04/26 05:17:04;;;;;;;9.30;4.70;;;;;;;7.06;71.52;99613.46;130702;1259;107343;-73
2023/04/26 05:20:11;;;;;;;10.30;5.80;;;;;;;7.13;71.09;99617.27;130634;1256;107608;-74
2023/04/26 05:23:16;;;;;;;10.60;5.40;;;;;;;7.17;71.25;99618.70;130817;1256;106423;-74
2023/04/26 05:26:22;;;;;;;10.40;5.40;;;;;;;7.24;70.09;99622.93;130785;1259;107357;-74
2023/04/26 05:29:48;;;;;;;9.20;4.40;;;;;;;7.13;69.68;99625.92;130776;1259;107323;-74
2023/04/26 05:33:04;;;;;;;7.80;4.10;;;;;;;7.10;70.33;99628.48;130822;1264;107390;-74
2023/04/26 05:36:13;;;;;;;10.30;4.60;;;;;;;7.16;69.80;99631.83;130845;1256;107374;-74
2023/04/26 05:39:20;;;;;;;7.30;4.40;;;;;;;7.20;70.47;99630.05;130807;1260;107490;-74
2023/04/26 05:42:26;;;;;;;11.20;4.50;;;;;;;7.21;70.10;99631.38;130781;1256;107378;-74
2023/04/26 05:45:31;;;;;;;10.10;4.40;;;;;;;7.22;70.10;99629.68;130761;1258;107451;-73
2023/04/26 05:48:38;;;;;;;9.60;4.40;;;;;;;7.37;70.43;99629.98;130739;1256;107411;-74
2023/04/26 05:51:45;;;;;;;7.10;3.80;;;;;;;7.52;70.73;99631.04;130859;1266;107552;-74
2023/04/26 05:54:50;;;;;;;8.70;4.20;;;;;;;7.68;70.90;99627.35;130913;1261;107499;-74
2023/04/26 05:57:57;;;;;;;11.70;4.00;;;;;;;7.82;71.14;99632.90;130930;1258;107137;-74
2023/04/26 06:01:02;;;;;;;9.00;4.20;;;;;;;7.82;69.24;99632.23;130590;1260;106255;-74
2023/04/26 06:04:08;;;;;;;7.30;4.10;;;;;;;7.61;69.55;99633.38;130656;1258;107517;-74
2023/04/26 06:07:21;;;;;;;9.10;4.30;;;;;;;7.59;69.56;99637.67;130877;1254;107389;-74
2023/04/26 06:10:27;;;;;;;8.10;3.90;;;;;;;7.60;70.30;99636.66;130727;1260;107963;-74
2023/04/26 06:13:33;;;;;;;8.50;4.10;;;;;;;7.69;69.57;99640.54;130762;1259;106480;-76
2023/04/26 06:16:38;;;;;;;10.30;4.60;;;;;;;7.73;70.37;99641.41;130909;1259;106432;-73
2023/04/26 06:19:44;;;;;;;19.00;11.90;;;;;;;7.66;68.65;99646.19;130824;1260;107409;-73
2023/04/26 06:22:50;;;;;;;14.30;7.00;;;;;;;7.61;69.71;99643.80;130825;1267;107551;-73
2023/04/26 06:25:56;;;;;;;12.20;6.40;;;;;;;7.63;69.28;99649.64;130635;1260;108003;-73
2023/04/26 06:29:02;;;;;;;8.60;5.00;;;;;;;7.59;68.83;99652.14;130609;1265;107503;-73
2023/04/26 06:32:08;;;;;;;12.70;6.00;;;;;;;7.58;68.69;99654.00;130690;1260;107501;-74
2023/04/26 06:35:14;;;;;;;17.10;8.20;;;;;;;7.56;68.58;99651.02;130588;1265;106414;-74
2023/04/26 06:38:20;;;;;;;11.70;5.30;;;;;;;7.48;67.08;99656.16;130767;1254;107376;-74
2023/04/26 06:41:25;;;;;;;11.60;5.40;;;;;;;7.38;68.12;99651.34;130841;1269;107542;-74
2023/04/26 06:44:31;;;;;;;5.90;3.70;;;;;;;7.44;68.79;99651.45;130638;1259;107398;-74
2023/04/26 06:47:41;;;;;;;11.40;5.00;;;;;;;7.69;67.81;99657.34;130624;1260;107308;-74
2023/04/26 06:50:46;;;;;;;11.60;5.10;;;;;;;7.75;66.98;99663.54;130812;1259;107576;-72
2023/04/26 06:53:52;;;;;;;12.20;4.80;;;;;;;7.76;66.54;99664.52;130898;1260;107582;-73
2023/04/26 06:56:57;;;;;;;8.20;4.40;;;;;;;7.77;67.58;99661.59;130840;1267;107543;-73
2023/04/26 07:00:03;;;;;;;8.40;4.00;;;;;;;7.92;68.13;99661.85;130601;1259;107536;-73
2023/04/26 07:03:09;;;;;;;7.70;3.60;;;;;;;8.27;68.10;99662.11;130705;1267;107546;-74
2023/04/26 07:06:15;;;;;;;8.00;4.20;;;;;;;8.55;66.80;99662.02;130692;1257;107273;-74
2023/04/26 07:09:21;;;;;;;10.70;5.20;;;;;;;8.52;65.66;99659.86;130846;1259;107244;-74
2023/04/26 07:12:26;;;;;;;10.90;4.90;;;;;;;8.53;66.18;99661.50;130818;1259;107361;-74
2023/04/26 07:15:32;;;;;;;14.00;6.20;;;;;;;8.56;65.91;99663.28;130865;1257;106584;-72
2023/04/26 07:18:38;;;;;;;9.30;3.80;;;;;;;8.67;67.29;99659.61;130853;1257;107514;-72
2023/04/26 07:21:44;;;;;;;10.60;4.10;;;;;;;8.78;66.74;99667.90;130907;1259;107319;-73
2023/04/26 07:24:50;;;;;;;9.30;4.50;;;;;;;8.80;66.24;99667.88;130873;1254;108127;-74
2023/04/26 07:27:55;;;;;;;8.80;3.90;;;;;;;8.77;64.79;99670.64;130854;1267;107552;-72
2023/04/26 07:31:01;;;;;;;11.00;5.10;;;;;;;8.79;65.01;99663.30;130749;1266;107484;-74
2023/04/26 07:34:07;;;;;;;13.70;6.80;;;;;;;8.74;64.82;99669.60;130717;1257;107526;-74
2023/04/26 07:37:12;;;;;;;12.20;5.40;;;;;;;8.63;64.03;99684.08;130773;1267;107408;-73
2023/04/26 07:40:21;;;;;;;9.50;3.60;;;;;;;8.57;62.30;99673.69;130939;1267;107492;-73
2023/04/26 07:43:27;;;;;;;6.50;2.90;;;;;;;8.65;64.44;99673.92;130729;1257;106677;-74
2023/04/26 07:46:34;;;;;;;7.90;3.20;;;;;;;8.65;61.76;99681.23;130686;1254;108944;-75
2023/04/26 07:49:40;;;;;;;8.60;3.10;;;;;;;8.54;63.85;99678.42;130718;1254;107547;-74
2023/04/26 07:52:45;;;;;;;10.50;4.10;;;;;;;8.63;62.97;99680.71;130830;1267;108145;-73
2023/04/26 07:55:51;;;;;;;9.00;2.40;;;;;;;8.76;63.60;99679.12;130690;1260;107529;-73
2023/04/26 07:58:57;;;;;;;6.00;2.30;;;;;;;8.96;64.36;99682.72;130672;1258;105472;-73
2023/04/26 08:02:02;;;;;;;6.50;2.60;;;;;;;8.97;62.78;99695.63;130817;1256;107555;-74
2023/04/26 08:05:09;;;;;;;7.40;2.60;;;;;;;9.13;63.35;99689.02;130791;1258;105550;-75
2023/04/26 08:08:15;;;;;;;8.60;2.50;;;;;;;9.26;60.00;99697.92;130752;1258;107363;-74
2023/04/26 08:11:20;;;;;;;8.60;2.90;;;;;;;9.10;60.49;99701.55;130728;1267;107562;-74
2023/04/26 08:14:26;;;;;;;6.00;2.40;;;;;;;9.07;61.38;99704.83;130899;1258;107582;-73
2023/04/26 08:17:32;;;;;;;6.20;2.40;;;;;;;9.25;61.13;99699.98;130729;1267;106685;-74
2023/04/26 08:20:37;;;;;;;5.90;2.10;;;;;;;9.44;60.32;99701.41;130839;1267;107596;-74
2023/04/26 08:23:43;;;;;;;5.80;2.10;;;;;;;9.47;55.43;99704.81;130750;1266;107565;-74
2023/04/26 08:26:48;;;;;;;4.90;1.70;;;;;;;9.27;56.81;99703.02;130749;1259;107528;-73
2023/04/26 08:29:54;;;;;;;6.10;2.00;;;;;;;9.33;57.93;99705.17;130776;1256;107518;-74
2023/04/26 08:33:00;;;;;;;6.60;1.80;;;;;;;9.43;55.83;99703.47;130738;1258;105857;-73
2023/04/26 08:36:07;;;;;;;5.00;1.80;;;;;;;9.22;53.22;99715.17;130789;1260;107312;-74
2023/04/26 08:39:12;;;;;;;5.70;1.90;;;;;;;9.13;55.62;99708.30;130850;1258;107623;-73
2023/04/26 08:42:18;;;;;;;5.80;1.90;;;;;;;9.18;55.62;99711.86;130759;1266;107563;-73
2023/04/26 08:45:24;;;;;;;5.90;1.70;;;;;;;9.14;54.12;99713.37;130792;1257;107388;-73
2023/04/26 08:48:36;;;;;;;5.20;1.80;;;;;;;9.18;56.00;99713.81;130775;1256;106284;-73
2023/04/26 08:51:43;;;;;;;5.20;1.70;;;;;;;9.17;53.99;99716.58;130855;1261;105883;-74
2023/04/26 08:54:50;;;;;;;4.10;1.60;;;;;;;9.17;52.48;99712.74;130830;1258;107261;-73
2023/04/26 08:57:55;;;;;;;6.30;1.60;;;;;;;9.44;52.21;99716.29;130815;1257;107587;-74
2023/04/26 09:01:03;;;;;;;3.10;1.50;;;;;;;9.57;52.03;99714.81;130797;1255;107538;-73
2023/04/26 09:04:10;;;;;;;4.90;2.10;;;;;;;9.63;53.45;99718.97;130811;1260;107603;-72
2023/04/26 09:07:21;;;;;;;4.20;1.70;;;;;;;9.55;52.41;99725.16;130744;1253;106687;-73
2023/04/26 09:10:27;;;;;;;5.10;1.80;;;;;;;9.26;51.37;99736.63;130834;1255;107539;-74
2023/04/26 09:13:33;;;;;;;3.60;1.60;;;;;;;8.98;52.37;99736.61;130821;1257;109173;-74
2023/04/26 09:16:38;;;;;;;4.80;1.60;;;;;;;8.96;54.87;99739.66;130861;1259;108216;-74
2023/04/26 09:19:44;;;;;;;6.90;1.60;;;;;;;9.16;53.20;99731.74;130814;1253;106734;-74
2023/04/26 09:22:51;;;;;;;5.20;1.60;;;;;;;9.15;53.40;99743.61;130862;1254;107531;-74
2023/04/26 09:25:56;;;;;;;6.20;1.70;;;;;;;9.23;53.57;99741.87;130760;1257;107648;-74
2023/04/26 09:29:15;;;;;;;4.00;1.60;;;;;;;9.52;52.94;99738.23;130857;1254;107529;-74
2023/04/26 09:32:20;;;;;;;4.90;1.50;;;;;;;9.93;53.26;99737.33;130843;1260;106806;-74
2023/04/26 09:35:31;;;;;;;5.80;1.90;;;;;;;10.16;52.69;99737.36;130889;1257;107552;-75
2023/04/26 09:38:43;;;;;;;6.30;1.70;;;;;;;10.07;51.33;99741.88;130884;1261;107525;-76
2023/04/26 09:41:48;;;;;;;5.70;1.90;;;;;;;9.74;49.52;99751.35;130781;1255;107276;-74
2023/04/26 09:44:54;;;;;;;2.20;1.20;;;;;;;9.44;48.55;99744.23;130743;1255;105972;-74
2023/04/26 09:51:35;;;;;;;5.90;1.70;;;;;;;10.07;49.75;99742.73;126855;1297;635834;-73
2023/04/26 09:54:43;;;;;;;2.50;1.60;;;;;;;10.11;49.17;99733.85;130167;1265;107286;-73
2023/04/26 09:57:48;;;;;;;4.40;1.70;;;;;;;10.18;50.04;99735.71;130053;1268;107514;-73
2023/04/26 10:00:54;;;;;;;4.30;2.00;;;;;;;10.25;47.57;99744.80;130687;1274;107513;-73
2023/04/26 10:04:03;;;;;;;4.50;1.90;;;;;;;10.20;47.60;99743.84;130580;1258;116350;-74
2023/04/26 10:07:09;;;;;;;4.60;1.90;;;;;;;10.26;48.04;99743.25;130743;1257;107579;-73
2023/04/26 10:10:15;;;;;;;6.20;1.90;;;;;;;10.10;45.87;99748.54;130833;1257;107483;-73
2023/04/26 10:13:21;;;;;;;4.40;2.20;;;;;;;9.97;46.16;99748.30;130839;1257;107521;-73
2023/04/26 10:16:28;;;;;;;6.20;1.80;;;;;;;9.80;47.63;99751.48;130835;1258;106480;-73
2023/04/26 10:19:36;;;;;;;7.10;3.90;;;;;;;9.71;47.70;99751.02;130729;1273;108013;-75
2023/04/26 10:22:53;;;;;;;7.50;3.70;;;;;;;9.63;46.59;99759.49;130919;1253;107518;-74
2023/04/26 10:25:59;;;;;;;30.20;21.10;;;;;;;9.58;47.02;99757.27;130790;1259;108159;-73
2023/04/26 10:29:04;;;;;;;8.20;2.70;;;;;;;9.64;47.19;99754.73;130806;1257;107556;-73
2023/04/26 10:32:15;;;;;;;5.60;2.10;;;;;;;9.75;47.82;99751.48;130837;1259;107492;-73
2023/04/26 10:35:21;;;;;;;4.90;1.60;;;;;;;9.80;47.91;99756.95;130822;1257;106702;-72
2023/04/26 10:38:27;;;;;;;4.40;1.70;;;;;;;9.92;47.50;99758.75;130901;1267;107349;-73
2023/04/26 10:41:40;;;;;;;4.30;1.80;;;;;;;10.02;46.95;99761.77;130733;1253;107427;-73
2023/04/26 10:44:46;;;;;;;5.10;1.80;;;;;;;9.98;46.91;99762.55;130694;1256;107127;-73
2023/04/26 10:48:11;;;;;;;4.80;2.20;;;;;;;10.00;46.73;99763.87;130768;1259;107548;-73
2023/04/26 10:51:17;;;;;;;5.80;2.00;;;;;;;9.93;46.35;99760.25;131244;1253;107575;-73
2023/04/26 10:54:22;;;;;;;4.80;2.00;;;;;;;9.97;48.11;99757.27;131396;1260;107535;-73
2023/04/26 10:57:48;;;;;;;3.70;1.90;;;;;;;10.15;48.18;99754.13;131333;1254;107961;-73
2023/04/26 11:01:07;;;;;;;10.60;6.20;;;;;;;10.40;48.44;99758.55;131461;1254;107550;-73
2023/04/26 11:04:13;;;;;;;36.40;21.00;;;;;;;10.64;47.66;99758.73;131205;1253;106699;-73
2023/04/26 11:07:37;;;;;;;146.80;80.10;;;;;;;10.77;47.03;99763.28;131116;1262;107491;-73
2023/04/26 11:10:43;;;;;;;16.20;8.40;;;;;;;10.93;47.11;99767.23;131287;1248;108244;-72
2023/04/26 11:13:49;;;;;;;7.60;2.90;;;;;;;10.79;43.87;99765.22;131131;1254;107218;-72
2023/04/26 11:16:55;;;;;;;5.40;2.60;;;;;;;10.47;44.08;99771.42;131226;1264;107477;-73
2023/04/26 11:20:08;;;;;;;5.30;2.40;;;;;;;10.42;46.65;99772.52;131115;1257;108114;-73
2023/04/26 11:23:15;;;;;;;70.10;35.20;;;;;;;10.36;44.72;99779.49;131271;1260;107575;-72
2023/04/26 11:26:20;;;;;;;39.10;21.20;;;;;;;10.33;46.49;99778.45;131227;1269;107225;-73
2023/04/26 11:29:26;;;;;;;10.70;6.90;;;;;;;10.44;45.50;99788.09;131453;1252;107177;-73
2023/04/26 11:32:33;;;;;;;4.50;2.30;;;;;;;10.61;46.73;99777.37;131312;1254;107467;-72
2023/04/26 11:35:39;;;;;;;5.80;2.20;;;;;;;10.75;45.95;99776.25;131146;1248;107376;-73
2023/04/26 11:38:45;;;;;;;5.40;3.40;;;;;;;10.68;46.48;99782.90;131348;1252;107479;-73
2023/04/26 11:41:50;;;;;;;12.50;8.10;;;;;;;10.53;45.87;99783.23;131290;1252;107489;-72
2023/04/26 11:45:00;;;;;;;8.20;4.50;;;;;;;10.39;44.83;99787.74;131205;1251;107394;-73
2023/04/26 11:48:07;;;;;;;7.60;4.10;;;;;;;10.33;44.96;99792.27;131306;1252;107524;-73
2023/04/26 11:51:13;;;;;;;7.00;3.60;;;;;;;10.26;44.54;99800.49;131311;1252;107505;-72
2023/04/26 11:54:32;;;;;;;13.10;5.20;;;;;;;10.06;44.81;99803.17;131237;1255;106690;-72
2023/04/26 11:57:38;;;;;;;21.10;12.10;;;;;;;9.80;45.04;99809.92;131282;1261;107434;-74
2023/04/26 12:01:00;;;;;;;9.30;4.90;;;;;;;9.58;44.47;99818.88;131263;1253;107513;-74
2023/04/26 12:04:10;;;;;;;6.80;2.60;;;;;;;9.39;45.07;99820.85;131403;1251;106609;-74
2023/04/26 12:07:20;;;;;;;6.10;2.50;;;;;;;9.29;45.25;99823.61;131242;1253;107416;-74
2023/04/26 12:10:28;;;;;;;4.90;2.10;;;;;;;9.35;45.49;99822.84;131271;1255;107579;-74
2023/04/26 12:13:33;;;;;;;7.00;2.20;;;;;;;9.50;45.15;99824.76;131293;1264;107200;-73
2023/04/26 12:16:39;;;;;;;5.60;3.60;;;;;;;9.56;44.90;99810.44;131228;1253;105803;-73
2023/04/26 12:19:44;;;;;;;5.30;2.40;;;;;;;9.67;45.70;99807.52;131207;1251;107480;-72
2023/04/26 12:23:06;;;;;;;7.00;2.90;;;;;;;9.78;46.10;99804.92;131256;1258;107529;-73
2023/04/26 12:26:12;;;;;;;6.70;2.00;;;;;;;9.83;44.84;99810.45;131443;1263;107273;-73
2023/04/26 12:29:18;;;;;;;3.80;1.70;;;;;;;9.74;45.37;99811.94;131191;1252;107271;-73
2023/04/26 12:32:23;;;;;;;4.70;2.30;;;;;;;9.67;44.94;99821.16;131201;1251;106212;-72
2023/04/26 12:35:29;;;;;;;6.70;3.60;;;;;;;9.67;45.62;99814.26;131213;1263;107537;-73
2023/04/26 12:38:35;;;;;;;25.30;15.90;;;;;;;9.68;45.38;99821.42;131318;1253;107387;-72
2023/04/26 12:41:40;;;;;;;13.20;5.60;;;;;;;9.69;45.08;99823.33;131244;1251;106634;-73
2023/04/26 12:44:46;;;;;;;5.70;2.30;;;;;;;9.79;44.74;99824.58;131310;1254;107144;-73
2023/04/26 12:47:51;;;;;;;7.10;3.30;;;;;;;9.85;44.77;99821.48;131432;1255;106440;-73
2023/04/26 12:50:57;;;;;;;7.10;2.60;;;;;;;9.77;44.40;99819.80;131355;1253;107527;-73
2023/04/26 12:54:03;;;;;;;8.80;5.60;;;;;;;9.62;45.10;99826.69;131281;1251;107395;-73
2023/04/26 12:57:09;;;;;;;5.30;2.10;;;;;;;9.52;45.37;99833.34;131137;1248;107427;-72
2023/04/26 13:00:17;;;;;;;6.60;3.10;;;;;;;9.33;43.67;99839.88;131221;1249;107379;-74
2023/04/26 13:03:23;;;;;;;5.40;3.50;;;;;;;9.36;45.28;99837.50;131213;1260;107249;-73
2023/04/26 13:06:28;;;;;;;6.80;1.90;;;;;;;9.66;45.89;99825.08;131134;1254;107569;-72
2023/04/26 13:09:34;;;;;;;6.10;1.90;;;;;;;9.81;41.62;99830.23;131425;1255;107514;-73
2023/04/26 13:12:39;;;;;;;6.40;2.80;;;;;;;9.63;40.66;99830.15;131152;1264;107280;-72
2023/04/26 13:15:45;;;;;;;2.50;1.70;;;;;;;9.52;43.20;99833.17;131120;1253;108217;-73
2023/04/26 13:18:50;;;;;;;4.90;1.90;;;;;;;9.55;42.21;99836.26;131131;1251;107364;-74
2023/04/26 13:21:56;;;;;;;4.60;2.30;;;;;;;9.60;41.97;99841.95;131196;1264;107241;-74
2023/04/26 13:25:02;;;;;;;5.40;2.60;;;;;;;9.74;40.75;99839.84;131463;1249;107545;-74
2023/04/26 13:28:07;;;;;;;4.80;2.30;;;;;;;9.79;41.91;99844.64;131491;1248;106667;-74
2023/04/26 13:31:15;;;;;;;2.70;1.80;;;;;;;9.87;40.17;99846.16;131438;1248;107366;-73
2023/04/26 13:34:21;;;;;;;8.70;3.20;;;;;;;9.88;41.33;99851.37;131337;1248;108220;-73
2023/04/26 13:37:26;;;;;;;4.00;2.00;;;;;;;10.07;41.86;99846.86;131168;1248;107523;-73
2023/04/26 13:40:31;;;;;;;5.00;1.90;;;;;;;10.18;41.46;99853.02;131245;1251;107527;-73
2023/04/26 13:43:37;;;;;;;4.80;1.70;;;;;;;10.17;39.74;99856.11;131163;1254;106568;-75
2023/04/26 13:46:43;;;;;;;4.90;1.60;;;;;;;10.11;40.43;99854.46;131198;1247;107519;-74
2023/04/26 13:49:48;;;;;;;4.80;1.70;;;;;;;10.10;41.07;99854.41;131200;1248;107264;-74
2023/04/26 13:52:54;;;;;;;2.90;1.40;;;;;;;10.14;40.73;99855.77;131256;1251;107340;-73
2023/04/26 13:55:59;;;;;;;7.30;2.10;;;;;;;10.13;39.75;99856.79;131229;1251;107501;-72
2023/04/26 13:59:06;;;;;;;6.60;2.00;;;;;;;9.95;39.92;99866.63;131198;1248;107199;-72
2023/04/26 14:02:12;;;;;;;4.30;1.70;;;;;;;9.88;40.21;99868.60;131170;1251;107140;-73
2023/04/26 14:05:18;;;;;;;3.40;1.80;;;;;;;9.76;39.86;99873.40;131165;1248;107662;-73
2023/04/26 14:08:23;;;;;;;4.40;1.90;;;;;;;9.64;40.00;99877.75;131305;1248;107606;-73
2023/04/26 14:11:29;;;;;;;4.80;1.80;;;;;;;9.59;40.70;99882.33;131442;1248;107652;-73
2023/04/26 14:14:35;;;;;;;10.50;4.80;;;;;;;9.63;41.08;99886.60;131514;1253;107562;-72
2023/04/26 14:17:40;;;;;;;7.00;2.80;;;;;;;9.64;41.00;99891.70;131385;1248;107366;-72
2023/04/26 14:20:47;;;;;;;5.10;2.70;;;;;;;9.65;41.60;99879.30;131421;1248;107549;-73
2023/04/26 14:23:52;;;;;;;4.50;2.00;;;;;;;9.68;42.04;99881.30;131233;1248;107452;-74